Time;durP1;ratioP1;P1;durP2;ratioP2;P2;SDS_P1;SDS_P2;PMS_P1;PMS_P2;Temp;Humidity;BMP_temperature;BMP_pressure;BME280_temperature;BME280_humidity;BME280_pressure;Samples;Min_cycle;Max_cycle;Signal;HPM_P1;HPM_P2
2023/04/02 00:00:09;;;;;;;0.80;0.57;;;21.90;39.70;;;;;;5047818;28;20108;-52
2023/04/02 00:02:57;;;;;;;2.38;0.60;;;21.90;39.70;;;;;;5049833;28;20037;-51
2023/04/02 00:05:24;;;;;;;1.05;0.60;;;21.90;39.60;;;;;;5048572;28;20079;-55
2023/04/02 00:07:56;;;;;;;1.40;0.82;;;21.90;39.60;;;;;;5050056;28;20371;-52
2023/04/02 00:10:25;;;;;;;1.90;0.50;;;21.90;39.50;;;;;;5050573;28;20043;-54
2023/04/02 00:13:20;;;;;;;1.38;0.68;;;21.90;39.50;;;;;;5049902;28;20468;-53
2023/04/02 00:15:49;;;;;;;1.05;0.60;;;21.90;39.40;;;;;;5048977;28;20068;-55
2023/04/02 00:18:21;;;;;;;1.23;0.80;;;21.90;39.40;;;;;;5047613;28;20072;-48
2023/04/02 00:20:52;;;;;;;1.05;0.68;;;21.90;40.00;;;;;;5049285;28;20120;-51
2023/04/02 00:23:19;;;;;;;0.50;0.50;;;21.90;39.30;;;;;;5047996;28;20037;-50
2023/04/02 00:25:46;;;;;;;1.90;0.68;;;21.90;39.30;;;;;;5049671;28;20025;-55
2023/04/02 00:28:22;;;;;;;0.60;0.40;;;21.90;39.20;;;;;;5049111;28;20383;-55
2023/04/02 00:30:57;;;;;;;1.10;0.65;;;21.90;39.20;;;;;;5046954;28;20029;-52
2023/04/02 00:33:27;;;;;;;0.70;0.52;;;21.80;39.10;;;;;;5047248;28;20025;-50
2023/04/02 00:35:54;;;;;;;0.70;0.50;;;21.90;39.20;;;;;;5050039;28;20112;-49
2023/04/02 00:38:25;;;;;;;0.65;0.60;;;21.80;39.20;;;;;;5047027;28;20028;-57
2023/04/02 00:40:53;;;;;;;0.82;0.50;;;21.90;39.30;;;;;;5043976;28;20041;-56
2023/04/02 00:43:26;;;;;;;1.13;0.70;;;21.80;39.20;;;;;;5049283;28;20048;-55
2023/04/02 00:46:00;;;;;;;0.70;0.60;;;21.80;39.20;;;;;;5045890;28;20056;-52
2023/04/02 00:48:45;;;;;;;1.23;0.60;;;21.80;39.10;;;;;;5044992;28;20497;-53
2023/04/02 00:51:18;;;;;;;0.60;0.40;;;21.80;39.00;;;;;;5049265;28;20119;-56
2023/04/02 00:53:47;;;;;;;0.55;0.50;;;21.80;39.00;;;;;;5045314;28;20035;-54
2023/04/02 00:56:39;;;;;;;0.70;0.47;;;21.80;39.00;;;;;;5045449;28;20037;-55
2023/04/02 00:59:41;;;;;;;1.30;0.70;;;21.80;39.00;;;;;;5040401;28;20033;-53
2023/04/02 01:02:13;;;;;;;0.82;0.60;;;21.80;39.00;;;;;;5046305;28;20025;-52
2023/04/02 01:04:40;;;;;;;0.98;0.63;;;21.80;38.90;;;;;;5048099;28;20041;-54
2023/04/02 01:07:11;;;;;;;0.93;0.60;;;21.80;38.90;;;;;;5045157;28;20119;-52
2023/04/02 01:09:49;;;;;;;0.90;0.55;;;21.80;38.80;;;;;;5044734;28;20029;-49
2023/04/02 01:12:42;;;;;;;1.67;0.70;;;21.80;38.80;;;;;;5044202;28;20025;-54
2023/04/02 01:15:16;;;;;;;1.48;0.57;;;21.80;38.80;;;;;;5046482;28;20787;-50
2023/04/02 01:18:05;;;;;;;0.77;0.60;;;21.70;38.80;;;;;;5048701;28;20128;-52
2023/04/02 01:20:52;;;;;;;0.75;0.60;;;21.70;38.70;;;;;;5050402;28;20536;-54
2023/04/02 01:23:34;;;;;;;0.70;0.50;;;21.70;38.70;;;;;;5045155;28;20056;-52
2023/04/02 01:26:09;;;;;;;1.02;0.70;;;21.70;38.60;;;;;;5043055;28;20067;-52
2023/04/02 01:29:09;;;;;;;1.10;0.68;;;21.70;38.60;;;;;;5046911;28;20021;-50
2023/04/02 01:31:36;;;;;;;1.00;0.70;;;21.70;38.60;;;;;;5047464;28;20021;-54
2023/04/02 01:34:06;;;;;;;0.75;0.65;;;21.70;38.60;;;;;;5046010;28;20041;-54
2023/04/02 01:36:55;;;;;;;0.60;0.60;;;21.70;38.60;;;;;;5046004;28;20024;-50
2023/04/02 01:39:39;;;;;;;0.75;0.50;;;21.70;38.50;;;;;;5048048;28;20033;-50
2023/04/02 01:42:08;;;;;;;1.30;0.70;;;21.70;38.50;;;;;;5045979;28;20033;-55
2023/04/02 01:44:41;;;;;;;1.00;0.70;;;21.70;38.40;;;;;;5047887;28;20032;-51
2023/04/02 01:47:14;;;;;;;0.73;0.52;;;21.70;38.40;;;;;;5045004;28;20029;-55
2023/04/02 01:49:42;;;;;;;0.82;0.60;;;21.70;38.40;;;;;;5044471;28;20075;-54
2023/04/02 01:52:12;;;;;;;1.50;0.70;;;21.70;38.40;;;;;;5045130;28;20025;-53
2023/04/02 01:54:39;;;;;;;0.70;0.60;;;21.60;38.30;;;;;;5041814;28;20033;-54
2023/04/02 01:57:07;;;;;;;1.02;0.60;;;21.60;38.20;;;;;;5048405;28;20029;-52
2023/04/02 01:59:33;;;;;;;1.13;0.70;;;21.60;38.20;;;;;;5050287;28;20104;-52
2023/04/02 02:02:12;;;;;;;1.00;0.60;;;21.60;38.10;;;;;;5048511;28;20049;-52
2023/04/02 02:04:40;;;;;;;1.02;0.60;;;21.60;38.10;;;;;;5046874;28;20025;-52
2023/04/02 02:07:15;;;;;;;1.50;0.60;;;21.60;38.10;;;;;;5050422;28;20024;-56
2023/04/02 02:09:44;;;;;;;1.15;0.70;;;21.60;38.00;;;;;;5051047;28;20043;-53
2023/04/02 02:12:13;;;;;;;0.80;0.60;;;21.60;38.00;;;;;;5063736;28;20080;-53
2023/04/02 02:14:44;;;;;;;0.80;0.50;;;21.60;38.00;;;;;;5048736;28;20018;-52
2023/04/02 02:17:14;;;;;;;0.75;0.65;;;21.60;38.00;;;;;;5046917;28;20025;-49
2023/04/02 02:19:46;;;;;;;1.05;0.75;;;21.60;38.00;;;;;;5051189;28;20037;-52
2023/04/02 02:22:12;;;;;;;0.60;0.60;;;21.60;37.90;;;;;;5050769;28;20112;-50
2023/04/02 02:24:38;;;;;;;0.80;0.70;;;21.50;38.00;;;;;;5052431;28;20419;-53
2023/04/02 02:27:22;;;;;;;1.10;0.70;;;21.50;38.00;;;;;;5047659;28;20036;-55
2023/04/02 02:30:10;;;;;;;1.73;0.80;;;21.50;38.00;;;;;;5050546;28;20403;-53
2023/04/02 02:32:42;;;;;;;1.50;0.80;;;21.50;38.00;;;;;;5051504;28;20047;-52
2023/04/02 02:35:22;;;;;;;1.95;0.80;;;21.50;38.00;;;;;;5049257;28;20037;-52
2023/04/02 02:38:13;;;;;;;1.23;0.70;;;21.50;37.90;;;;;;5047706;28;20029;-50
2023/04/02 02:40:44;;;;;;;1.35;0.95;;;21.50;38.00;;;;;;5033300;28;20048;-53
2023/04/02 02:43:13;;;;;;;1.48;0.73;;;21.50;38.00;;;;;;5050624;28;20048;-56
2023/04/02 02:45:41;;;;;;;1.20;0.93;;;21.50;37.90;;;;;;5048785;28;20043;-53
2023/04/02 02:48:14;;;;;;;1.13;0.80;;;21.50;37.90;;;;;;5050013;28;20032;-52
2023/04/02 02:50:42;;;;;;;0.95;0.80;;;21.50;37.90;;;;;;5048895;28;20129;-51
2023/04/02 02:53:24;;;;;;;1.08;0.80;;;21.50;37.90;;;;;;5075824;28;20032;-51
2023/04/02 02:55:57;;;;;;;0.93;0.63;;;21.50;37.80;;;;;;5049408;28;20027;-49
2023/04/02 02:58:31;;;;;;;0.65;0.57;;;21.50;37.80;;;;;;5049591;28;20132;-49
2023/04/02 03:01:08;;;;;;;1.13;0.82;;;21.40;37.70;;;;;;5048222;28;20104;-51
2023/04/02 03:03:37;;;;;;;1.27;0.90;;;21.50;37.70;;;;;;5048079;28;20037;-53
2023/04/02 03:06:12;;;;;;;0.98;0.70;;;21.50;37.70;;;;;;5049557;28;20190;-54
2023/04/02 03:09:00;;;;;;;0.95;0.70;;;21.40;37.60;;;;;;5047119;28;20059;-55
2023/04/02 03:11:56;;;;;;;1.42;0.90;;;21.40;37.60;;;;;;5049738;28;20021;-55
2023/04/02 03:14:53;;;;;;;1.15;0.90;;;21.50;37.70;;;;;;5069836;28;20079;-54
2023/04/02 03:17:28;;;;;;;1.75;0.90;;;21.40;37.60;;;;;;5041957;28;20044;-50
2023/04/02 03:20:05;;;;;;;1.40;0.70;;;21.40;37.50;;;;;;5049625;28;20128;-51
2023/04/02 03:22:42;;;;;;;0.88;0.70;;;21.40;37.40;;;;;;5048074;28;20037;-53
2023/04/02 03:25:31;;;;;;;1.10;0.70;;;21.40;37.40;;;;;;5048614;28;20033;-54
2023/04/02 03:28:03;;;;;;;2.13;0.80;;;21.40;37.40;;;;;;5047080;28;20029;-52
2023/04/02 03:30:45;;;;;;;1.13;0.68;;;21.40;37.30;;;;;;5048501;28;20048;-49
2023/04/02 03:33:37;;;;;;;0.90;0.77;;;21.40;37.30;;;;;;5048984;28;20045;-54
2023/04/02 03:36:24;;;;;;;1.10;0.80;;;21.40;37.30;;;;;;5047688;28;20496;-54
2023/04/02 03:38:59;;;;;;;1.50;0.70;;;21.40;37.30;;;;;;5048701;28;20452;-49
2023/04/02 03:41:37;;;;;;;;;;;21.30;37.20;;;;;;5049257;28;20043;-52
2023/04/02 03:44:14;;;;;;;1.13;0.70;;;21.40;37.20;;;;;;5049313;28;19917;-54
2023/04/02 03:46:46;;;;;;;0.95;0.55;;;21.30;37.10;;;;;;5049648;28;20138;-54
2023/04/02 03:49:35;;;;;;;1.98;0.95;;;21.30;37.10;;;;;;5049518;28;20175;-50
2023/04/02 03:52:23;;;;;;;1.63;0.93;;;21.30;37.10;;;;;;5047045;28;20056;-50
2023/04/02 03:54:49;;;;;;;1.17;0.80;;;21.30;37.20;;;;;;5047056;28;20499;-54
2023/04/02 03:57:29;;;;;;;1.52;0.90;;;21.30;37.20;;;;;;5048290;28;20037;-51
2023/04/02 04:00:06;;;;;;;1.45;0.90;;;21.30;37.10;;;;;;5049393;28;20040;-54
2023/04/02 04:02:46;;;;;;;0.85;0.80;;;21.30;37.10;;;;;;5046409;28;20053;-54
2023/04/02 04:05:34;;;;;;;1.58;0.90;;;21.30;37.00;;;;;;5047212;28;20032;-57
2023/04/02 04:08:12;;;;;;;1.45;1.13;;;21.30;37.00;;;;;;5042804;28;20110;-54
2023/04/02 04:10:38;;;;;;;1.15;0.80;;;21.30;36.90;;;;;;5047681;28;20063;-50
2023/04/02 04:13:16;;;;;;;1.67;1.00;;;21.30;36.90;;;;;;5049913;28;20115;-54
2023/04/02 04:16:01;;;;;;;1.20;0.80;;;21.30;36.80;;;;;;5049472;28;20368;-51
2023/04/02 04:18:42;;;;;;;1.17;0.63;;;21.20;36.70;;;;;;5048105;28;20025;-52
2023/04/02 04:21:30;;;;;;;;;;;21.30;36.70;;;;;;5048192;28;20025;-51
2023/04/02 04:24:13;;;;;;;1.52;0.80;;;21.20;36.70;;;;;;5045784;28;19926;-55
2023/04/02 04:26:42;;;;;;;1.80;0.90;;;21.20;36.70;;;;;;5048945;28;20028;-53
2023/04/02 04:29:32;;;;;;;1.20;0.77;;;21.20;36.70;;;;;;5047935;28;20036;-51
2023/04/02 04:32:32;;;;;;;1.40;0.93;;;21.20;36.60;;;;;;5045348;28;20481;-55
2023/04/02 04:35:14;;;;;;;1.73;1.05;;;21.20;36.60;;;;;;5048208;28;20418;-55
2023/04/02 04:37:48;;;;;;;1.17;0.90;;;21.20;36.60;;;;;;5046572;28;20025;-52
2023/04/02 04:40:16;;;;;;;0.85;0.70;;;21.20;36.50;;;;;;5061765;28;20023;-53
2023/04/02 04:42:43;;;;;;;1.80;0.80;;;21.20;36.50;;;;;;5047742;28;20051;-55
2023/04/02 04:45:37;;;;;;;1.65;0.80;;;21.20;36.50;;;;;;5043795;28;20033;-53
2023/04/02 04:48:25;;;;;;;2.92;1.13;;;21.20;36.40;;;;;;5041162;28;20036;-56
2023/04/02 04:51:00;;;;;;;1.40;0.88;;;21.20;36.40;;;;;;5047958;28;20024;-56
2023/04/02 04:53:28;;;;;;;1.17;0.80;;;21.20;36.30;;;;;;5045168;28;20029;-54
2023/04/02 04:56:05;;;;;;;2.47;0.90;;;21.20;36.20;;;;;;5047888;28;20032;-54
2023/04/02 04:59:07;;;;;;;1.38;1.00;;;21.20;36.10;;;;;;5043382;28;20044;-51
2023/04/02 05:01:41;;;;;;;1.00;0.60;;;21.20;36.10;;;;;;5043440;28;20052;-55
2023/04/02 05:04:19;;;;;;;2.30;0.75;;;21.20;36.00;;;;;;5046959;28;20048;-54
2023/04/02 05:07:09;;;;;;;0.95;0.65;;;21.20;36.10;;;;;;5046013;28;20140;-53
2023/04/02 05:09:53;;;;;;;1.38;0.80;;;21.20;36.00;;;;;;5038304;28;20017;-52
2023/04/02 05:12:25;;;;;;;1.42;0.70;;;21.10;35.80;;;;;;5040636;28;20363;-50
2023/04/02 05:15:14;;;;;;;1.10;0.65;;;21.10;35.70;;;;;;5043691;28;20453;-54
2023/04/02 05:18:10;;;;;;;1.42;0.80;;;21.10;35.60;;;;;;5046240;28;20028;-51
2023/04/02 05:20:47;;;;;;;2.47;1.00;;;21.10;35.60;;;;;;5047814;28;20128;-50
2023/04/02 05:23:26;;;;;;;1.52;0.80;;;21.10;35.50;;;;;;5048187;28;20449;-52
2023/04/02 05:25:58;;;;;;;1.38;0.82;;;21.10;35.40;;;;;;5048026;28;20521;-49
2023/04/02 05:28:50;;;;;;;1.23;0.70;;;21.10;35.40;;;;;;5049434;28;20025;-53
2023/04/02 05:31:45;;;;;;;1.70;0.88;;;21.10;35.30;;;;;;5049998;28;20360;-51
2023/04/02 05:34:13;;;;;;;1.00;0.60;;;21.10;35.20;;;;;;5051338;28;20040;-51
2023/04/02 05:36:39;;;;;;;1.20;0.80;;;21.10;35.20;;;;;;5051455;28;20078;-53
2023/04/02 05:39:11;;;;;;;1.08;0.70;;;21.10;35.20;;;;;;5049484;28;20029;-53
2023/04/02 05:41:46;;;;;;;1.75;0.80;;;21.10;35.20;;;;;;5046661;28;20170;-53
2023/04/02 05:44:32;;;;;;;1.48;0.68;;;21.10;35.10;;;;;;5049727;28;20044;-50
2023/04/02 05:47:02;;;;;;;1.70;0.73;;;21.10;35.10;;;;;;5050752;28;20036;-55
2023/04/02 05:49:34;;;;;;;1.92;0.90;;;21.00;35.00;;;;;;5049939;28;20025;-53
2023/04/02 05:52:03;;;;;;;1.85;0.75;;;21.10;35.00;;;;;;5050051;28;20044;-52
2023/04/02 05:54:56;;;;;;;0.93;0.50;;;21.00;34.90;;;;;;5051622;28;20056;-53
2023/04/02 05:57:35;;;;;;;1.50;0.65;;;21.10;34.90;;;;;;5075102;28;20040;-53
2023/04/02 06:00:07;;;;;;;1.20;0.63;;;21.00;34.90;;;;;;5049656;28;20020;-52
2023/04/02 06:02:52;;;;;;;1.27;0.60;;;21.00;34.90;;;;;;5048497;28;20055;-55
2023/04/02 06:05:40;;;;;;;1.65;0.60;;;21.00;34.80;;;;;;5049202;28;20035;-54
2023/04/02 06:08:34;;;;;;;1.63;0.60;;;21.00;34.80;;;;;;5049765;28;20044;-52
2023/04/02 06:11:17;;;;;;;0.85;0.50;;;21.00;34.80;;;;;;5031503;28;20041;-51
2023/04/02 06:13:43;;;;;;;0.80;0.50;;;21.00;34.70;;;;;;5050668;28;20090;-51
2023/04/02 06:16:13;;;;;;;1.63;0.70;;;21.00;34.70;;;;;;5051150;28;20032;-52
2023/04/02 06:18:41;;;;;;;2.45;0.82;;;21.00;34.70;;;;;;5049812;28;20167;-49
2023/04/02 06:21:12;;;;;;;1.45;0.50;;;21.00;34.70;;;;;;5051605;28;21627;-53
2023/04/02 06:23:43;;;;;;;1.42;0.70;;;21.00;34.70;;;;;;5064126;28;20034;-53
2023/04/02 06:26:20;;;;;;;0.77;0.45;;;21.00;34.70;;;;;;5045848;28;20036;-54
2023/04/02 06:29:02;;;;;;;1.33;0.63;;;21.00;34.60;;;;;;5072615;28;20120;-52
2023/04/02 06:31:40;;;;;;;0.70;0.57;;;21.00;34.60;;;;;;5045444;28;20042;-50
2023/04/02 06:34:15;;;;;;;1.15;0.70;;;21.00;34.60;;;;;;5047232;28;20035;-54
2023/04/02 06:36:48;;;;;;;1.27;0.68;;;21.00;34.60;;;;;;5041315;28;20029;-53
2023/04/02 06:39:22;;;;;;;1.27;0.68;;;21.00;34.70;;;;;;5037097;28;20036;-55
2023/04/02 06:42:27;;;;;;;1.05;0.50;;;21.00;34.70;;;;;;5054888;28;20025;-50
2023/04/02 06:45:13;;;;;;;2.13;0.88;;;21.00;34.70;;;;;;5055279;28;20037;-53
2023/04/02 06:47:50;;;;;;;1.42;0.82;;;21.00;34.60;;;;;;5037844;28;20048;-53
2023/04/02 06:50:52;;;;;;;1.52;0.77;;;20.90;34.60;;;;;;5028762;28;20099;-55
2023/04/02 06:53:31;;;;;;;1.85;0.95;;;21.00;34.90;;;;;;5043575;28;20033;-55
2023/04/02 06:56:07;;;;;;;1.77;1.08;;;21.00;35.00;;;;;;5072556;28;20131;-53
2023/04/02 06:58:35;;;;;;;3.08;1.17;;;21.00;35.00;;;;;;5036111;28;20029;-53
2023/04/02 07:01:01;;;;;;;2.22;1.50;;;21.00;35.70;;;;;;5040403;28;20029;-55
2023/04/02 07:03:33;;;;;;;2.58;1.70;;;21.00;35.20;;;;;;5036280;28;20041;-49
2023/04/02 07:06:18;;;;;;;2.45;1.77;;;21.00;35.30;;;;;;5042557;28;20035;-54
2023/04/02 07:08:46;;;;;;;2.97;2.00;;;21.10;35.40;;;;;;5035899;28;20467;-52
2023/04/02 07:11:15;;;;;;;3.33;2.10;;;21.10;35.30;;;;;;5023768;28;20369;-50
2023/04/02 07:13:42;;;;;;;3.05;2.20;;;21.10;35.30;;;;;;5041319;28;20036;-52
2023/04/02 07:16:21;;;;;;;4.03;2.47;;;21.10;35.20;;;;;;5039514;28;20041;-53
2023/04/02 07:18:48;;;;;;;2.80;2.25;;;21.10;35.00;;;;;;5041380;28;20048;-52
2023/04/02 07:21:14;;;;;;;3.83;2.50;;;21.20;35.00;;;;;;5043808;28;20033;-55
2023/04/02 07:23:40;;;;;;;4.80;2.83;;;21.10;34.90;;;;;;5039983;28;20048;-52
2023/04/02 07:26:11;;;;;;;5.07;2.70;;;21.20;34.90;;;;;;5045798;28;20025;-52
2023/04/02 07:28:37;;;;;;;3.05;2.50;;;21.20;34.80;;;;;;5044034;28;20056;-55
2023/04/02 07:31:03;;;;;;;3.58;2.80;;;21.20;34.80;;;;;;5044374;28;20029;-54
2023/04/02 07:33:29;;;;;;;3.78;2.58;;;21.20;34.70;;;;;;5041618;28;20048;-52
2023/04/02 07:35:56;;;;;;;4.70;2.83;;;21.20;34.60;;;;;;5042265;28;20014;-49
2023/04/02 07:38:23;;;;;;;3.85;2.72;;;21.20;34.60;;;;;;5038841;28;20349;-50
2023/04/02 07:40:49;;;;;;;3.25;2.33;;;21.30;34.50;;;;;;5051953;28;20463;-50
2023/04/02 07:43:15;;;;;;;2.97;2.20;;;21.30;34.40;;;;;;5050705;28;20052;-51
2023/04/02 07:45:41;;;;;;;5.85;2.45;;;21.30;34.30;;;;;;5046730;28;20048;-52
2023/04/02 07:48:08;;;;;;;4.78;2.55;;;21.40;34.20;;;;;;5041412;28;20072;-53
2023/04/02 07:50:35;;;;;;;4.15;2.60;;;21.40;34.20;;;;;;5046016;28;20056;-48
2023/04/02 07:53:01;;;;;;;3.63;2.40;;;21.40;34.10;;;;;;5043723;28;20033;-54
2023/04/02 07:55:27;;;;;;;3.22;2.50;;;21.40;34.10;;;;;;5044500;28;20028;-48
2023/04/02 07:57:55;;;;;;;3.55;2.67;;;21.40;34.00;;;;;;5042509;28;20111;-49
2023/04/02 08:00:24;;;;;;;4.40;2.78;;;21.40;33.90;;;;;;5040731;28;20086;-52
2023/04/02 08:02:50;;;;;;;3.65;2.10;;;21.50;33.90;;;;;;5039966;28;20044;-55
2023/04/02 08:05:16;;;;;;;3.50;2.65;;;21.50;33.90;;;;;;5045561;28;20027;-54
2023/04/02 08:07:43;;;;;;;3.67;2.33;;;21.50;33.80;;;;;;5044397;28;20025;-51
2023/04/02 08:10:10;;;;;;;3.42;2.30;;;21.50;33.80;;;;;;5041387;28;20441;-51
2023/04/02 08:12:37;;;;;;;4.13;2.60;;;21.50;33.70;;;;;;5036671;28;20041;-52
2023/04/02 08:15:05;;;;;;;4.32;2.42;;;21.50;33.60;;;;;;5043083;28;20083;-50
2023/04/02 08:17:32;;;;;;;3.47;2.50;;;21.60;33.50;;;;;;5044787;28;20096;-49
2023/04/02 08:20:01;;;;;;;3.15;2.05;;;21.50;33.40;;;;;;5044033;28;20056;-51
2023/04/02 08:22:30;;;;;;;2.88;2.13;;;21.60;33.40;;;;;;5040964;28;20102;-52
2023/04/02 08:24:56;;;;;;;3.42;2.40;;;21.60;33.30;;;;;;5038932;28;20040;-56
2023/04/02 08:27:23;;;;;;;3.03;2.30;;;21.60;33.40;;;;;;5036121;28;20461;-50
2023/04/02 08:29:50;;;;;;;4.57;2.85;;;21.60;33.50;;;;;;5036765;28;20028;-63
2023/04/02 08:32:16;;;;;;;3.60;2.30;;;21.60;33.80;;;;;;5043922;28;20043;-51
2023/04/02 08:34:42;;;;;;;5.57;3.95;;;21.60;33.50;;;;;;5041934;28;20021;-52
2023/04/02 08:37:11;;;;;;;7.50;6.03;;;21.50;33.20;;;;;;5038339;28;20040;-53
2023/04/02 08:39:37;;;;;;;9.27;7.15;;;21.50;34.00;;;;;;5043288;28;20040;-52
2023/04/02 08:42:33;;;;;;;10.45;8.57;;;21.50;33.50;;;;;;5043554;28;20028;-58
2023/04/02 08:45:20;;;;;;;9.43;8.00;;;21.50;33.50;;;;;;5051145;28;20041;-50
2023/04/02 08:47:47;;;;;;;11.95;9.48;;;21.50;33.70;;;;;;5049619;28;20399;-55
2023/04/02 08:50:22;;;;;;;14.13;11.50;;;21.50;33.80;;;;;;5050061;28;20082;-50
2023/04/02 08:52:48;;;;;;;16.45;12.90;;;21.60;34.70;;;;;;5051517;28;20021;-55
2023/04/02 08:55:41;;;;;;;19.98;15.27;;;21.50;35.70;;;;;;5051555;28;20321;-55
2023/04/02 08:58:37;;;;;;;23.48;16.88;;;21.60;37.10;;;;;;5045453;28;20036;-56
2023/04/02 09:01:10;;;;;;;22.95;18.17;;;21.60;37.90;;;;;;5055326;28;20051;-54
2023/04/02 09:03:41;;;;;;;23.98;18.67;;;21.70;38.70;;;;;;5051246;28;20415;-56
2023/04/02 09:06:12;;;;;;;33.97;23.33;;;21.70;39.40;;;;;;5053411;28;20352;-55
2023/04/02 09:08:39;;;;;;;34.83;23.05;;;21.70;40.30;;;;;;5052524;28;20048;-57
2023/04/02 09:11:34;;;;;;;35.22;24.15;;;21.70;41.00;;;;;;5054750;28;20139;-56
2023/04/02 09:14:02;;;;;;;;;;;21.70;41.20;;;;;;5052683;28;20021;-56
2023/04/02 09:16:48;;;;;;;28.77;22.23;;;21.80;40.90;;;;;;5055711;28;19908;-58
2023/04/02 09:19:25;;;;;;;28.70;21.45;;;21.80;40.60;;;;;;5053440;28;20029;-59
2023/04/02 09:22:06;;;;;;;30.85;22.63;;;21.80;41.20;;;;;;5055193;28;20025;-58
2023/04/02 09:24:32;;;;;;;31.85;23.50;;;21.80;41.60;;;;;;5054911;28;20043;-59
2023/04/02 09:26:58;;;;;;;31.98;23.52;;;21.80;41.70;;;;;;5055648;28;20021;-53
2023/04/02 09:29:38;;;;;;;31.25;23.88;;;21.80;42.00;;;;;;5054785;28;20074;-55
2023/04/02 09:32:12;;;;;;;31.00;24.58;;;21.90;42.10;;;;;;5053292;28;20056;-55
2023/04/02 09:34:38;;;;;;;32.60;24.67;;;21.90;42.40;;;;;;5049874;28;20040;-53
2023/04/02 09:37:24;;;;;;;44.22;31.00;;;21.90;42.30;;;;;;5053332;28;21297;-59
2023/04/02 09:39:50;;;;;;;45.13;33.53;;;21.90;42.20;;;;;;5053230;28;20029;-58
2023/04/02 09:42:36;;;;;;;48.58;32.38;;;21.90;42.10;;;;;;5055534;28;20068;-53
2023/04/02 09:45:20;;;;;;;43.95;32.05;;;22.00;42.20;;;;;;5054979;28;20033;-58
2023/04/02 09:47:50;;;;;;;38.92;26.23;;;22.00;42.20;;;;;;5055296;28;20039;-60
2023/04/02 09:50:28;;;;;;;15.13;10.82;;;22.00;42.60;;;;;;5054936;28;20021;-51
2023/04/02 09:52:53;;;;;;;19.52;13.23;;;21.90;39.50;;;;;;5053205;28;20048;-56
2023/04/02 09:55:21;;;;;;;17.50;13.68;;;21.80;38.70;;;;;;5051838;28;20132;-55
2023/04/02 09:57:49;;;;;;;20.40;14.40;;;21.80;39.20;;;;;;5055430;28;20040;-58
2023/04/02 10:00:25;;;;;;;24.70;16.42;;;21.80;39.80;;;;;;5055198;28;20029;-55
2023/04/02 10:03:24;;;;;;;27.27;19.63;;;21.80;40.40;;;;;;5053343;28;20060;-57
2023/04/02 10:06:12;;;;;;;25.92;18.88;;;21.80;41.40;;;;;;5044143;28;20045;-51
2023/04/02 10:08:41;;;;;;;24.83;18.40;;;21.90;41.50;;;;;;5046827;28;20033;-50
2023/04/02 10:11:18;;;;;;;24.80;17.80;;;21.90;41.20;;;;;;5044772;28;20032;-54
2023/04/02 10:13:57;;;;;;;27.45;17.27;;;21.90;40.40;;;;;;5045710;28;20037;-50
2023/04/02 10:16:31;;;;;;;18.83;15.23;;;21.90;39.90;;;;;;5048848;28;20040;-51
2023/04/02 10:19:19;;;;;;;19.13;15.50;;;21.90;39.20;;;;;;5054296;28;20036;-54
2023/04/02 10:21:48;;;;;;;21.63;16.23;;;21.90;38.70;;;;;;5051898;28;20025;-53
2023/04/02 10:24:16;;;;;;;23.13;18.85;;;21.90;38.50;;;;;;5054210;28;20040;-51
2023/04/02 10:27:08;;;;;;;22.02;18.42;;;21.90;38.40;;;;;;5046363;28;20034;-52
2023/04/02 10:29:50;;;;;;;25.25;20.17;;;21.90;38.20;;;;;;5044431;28;20430;-54
2023/04/02 10:32:48;;;;;;;25.58;21.95;;;21.90;38.40;;;;;;5042635;28;20037;-49
2023/04/02 10:35:20;;;;;;;27.42;23.08;;;21.90;38.50;;;;;;5042965;28;20063;-51
2023/04/02 10:38:31;;;;;;;27.30;22.88;;;21.90;38.60;;;;;;5040394;28;21601;-52
2023/04/02 10:41:22;;;;;;;30.13;24.70;;;22.00;38.80;;;;;;5043994;28;20025;-51
2023/04/02 10:44:07;;;;;;;28.10;23.70;;;21.90;38.80;;;;;;5043504;28;20056;-50
2023/04/02 10:46:45;;;;;;;29.15;23.60;;;21.90;38.90;;;;;;5042806;28;20032;-52
2023/04/02 10:49:21;;;;;;;27.75;23.08;;;22.00;38.90;;;;;;5043140;28;20052;-52
2023/04/02 10:51:56;;;;;;;31.83;25.42;;;22.00;38.90;;;;;;5046063;28;20021;-50
2023/04/02 10:54:34;;;;;;;29.13;24.48;;;22.00;38.90;;;;;;5041146;28;20029;-53
2023/04/02 10:57:13;;;;;;;28.88;24.75;;;22.00;38.80;;;;;;5045816;28;20167;-54
2023/04/02 10:59:53;;;;;;;28.10;24.90;;;22.00;38.70;;;;;;5045333;28;20040;-54
2023/04/02 11:02:42;;;;;;;30.35;25.65;;;22.00;38.70;;;;;;5043556;28;20025;-55
2023/04/02 11:05:42;;;;;;;27.88;23.90;;;22.00;38.70;;;;;;5044301;28;20114;-54
2023/04/02 11:08:22;;;;;;;27.17;23.35;;;22.00;38.60;;;;;;5044596;28;20205;-54
2023/04/02 11:11:02;;;;;;;27.42;23.00;;;22.00;38.50;;;;;;5044923;28;20043;-55
2023/04/02 11:13:34;;;;;;;26.85;22.58;;;22.00;38.50;;;;;;5046961;28;20462;-57
2023/04/02 11:16:00;;;;;;;26.80;23.02;;;22.00;38.40;;;;;;5029586;28;20468;-54
2023/04/02 11:18:28;;;;;;;26.02;22.35;;;22.00;38.90;;;;;;5043574;28;20798;-52
2023/04/02 11:20:57;;;;;;;26.23;21.50;;;22.00;38.20;;;;;;5043662;28;20048;-50
2023/04/02 11:23:27;;;;;;;28.05;23.40;;;22.00;38.30;;;;;;5037488;28;20034;-48
2023/04/02 11:26:33;;;;;;;25.98;22.88;;;22.00;38.30;;;;;;5047249;28;20375;-54
2023/04/02 11:29:15;;;;;;;28.63;23.35;;;22.00;38.40;;;;;;5044646;28;20025;-52
2023/04/02 11:31:43;;;;;;;26.17;22.38;;;22.00;38.30;;;;;;5037883;28;20021;-57
2023/04/02 11:34:15;;;;;;;25.65;21.60;;;22.10;38.30;;;;;;5050113;28;20147;-48
2023/04/02 11:37:01;;;;;;;26.67;23.30;;;22.10;38.20;;;;;;5040497;28;20033;-49
2023/04/02 11:39:45;;;;;;;29.00;24.58;;;22.10;38.30;;;;;;5040671;28;20021;-48
2023/04/02 11:42:17;;;;;;;28.13;24.83;;;22.10;38.40;;;;;;5043616;28;20115;-49
2023/04/02 11:44:43;;;;;;;27.58;23.98;;;22.10;38.40;;;;;;5040044;28;20137;-48
2023/04/02 11:47:23;;;;;;;28.00;24.77;;;22.10;38.50;;;;;;5044942;28;20053;-49
2023/04/02 11:50:00;;;;;;;26.95;24.05;;;22.10;38.50;;;;;;5046559;28;20029;-50
2023/04/02 11:52:46;;;;;;;26.45;23.60;;;22.20;38.50;;;;;;5040690;28;20025;-52
2023/04/02 11:55:31;;;;;;;28.55;24.02;;;22.20;38.40;;;;;;5041013;28;20040;-48
2023/04/02 11:58:19;;;;;;;27.92;24.35;;;22.20;38.40;;;;;;5043671;28;20354;-50
2023/04/02 12:01:17;;;;;;;26.80;23.70;;;22.20;38.40;;;;;;5041444;28;20142;-49
2023/04/02 12:04:20;;;;;;;29.38;26.33;;;22.20;38.40;;;;;;5042746;28;20119;-47
2023/04/02 12:07:17;;;;;;;29.25;25.42;;;22.20;38.40;;;;;;5038400;28;20037;-49
2023/04/02 12:09:57;;;;;;;27.38;24.50;;;22.20;38.30;;;;;;5043349;28;20341;-51
2023/04/02 12:12:25;;;;;;;30.75;25.48;;;22.20;38.30;;;;;;5041646;28;20029;-50
2023/04/02 12:14:53;;;;;;;32.75;26.35;;;22.30;38.40;;;;;;5043488;28;20065;-50
2023/04/02 12:17:38;;;;;;;29.25;25.88;;;22.20;38.30;;;;;;5041410;28;20051;-48
2023/04/02 12:20:12;;;;;;;30.50;26.85;;;22.20;38.30;;;;;;5041102;28;20090;-52
2023/04/02 12:22:45;;;;;;;29.83;26.33;;;22.20;38.20;;;;;;5052081;28;20062;-60
2023/04/02 12:25:31;;;;;;;27.08;24.17;;;22.30;38.10;;;;;;5044345;28;20029;-58
2023/04/02 12:28:10;;;;;;;29.35;24.98;;;22.30;38.00;;;;;;5063837;28;20676;-56
2023/04/02 12:30:37;;;;;;;29.58;26.10;;;22.30;38.00;;;;;;5042217;28;20021;-48
2023/04/02 12:33:21;;;;;;;29.98;26.67;;;22.30;38.00;;;;;;5043731;28;20035;-50
2023/04/02 12:35:56;;;;;;;31.52;28.10;;;22.30;38.10;;;;;;5041404;28;20116;-50
2023/04/02 12:38:46;;;;;;;32.65;27.33;;;22.30;38.10;;;;;;5041702;28;20497;-49
2023/04/02 12:41:32;;;;;;;29.42;26.27;;;22.40;38.20;;;;;;5044652;28;20448;-54
2023/04/02 12:44:10;;;;;;;29.95;25.33;;;22.30;38.00;;;;;;5041248;28;20069;-54
2023/04/02 12:46:38;;;;;;;30.05;26.65;;;22.30;37.90;;;;;;5039757;28;20074;-51
2023/04/02 12:49:18;;;;;;;29.27;26.08;;;22.30;37.80;;;;;;5040077;28;20025;-57
2023/04/02 12:51:47;;;;;;;30.73;26.90;;;22.40;37.90;;;;;;5041465;28;20910;-55
2023/04/02 12:54:17;;;;;;;29.75;26.50;;;22.40;37.80;;;;;;5042224;28;20464;-50
2023/04/02 12:56:43;;;;;;;29.13;26.00;;;22.40;37.90;;;;;;5039035;28;20043;-52
2023/04/02 12:59:29;;;;;;;29.35;26.10;;;22.30;37.70;;;;;;5038641;28;20029;-55
2023/04/02 13:02:01;;;;;;;30.33;26.70;;;22.40;37.60;;;;;;5038081;28;20175;-56
2023/04/02 13:04:27;;;;;;;31.02;26.75;;;22.40;37.60;;;;;;5042905;28;20102;-54
2023/04/02 13:06:55;;;;;;;29.55;25.08;;;22.40;37.50;;;;;;5040551;28;20086;-49
2023/04/02 13:09:35;;;;;;;30.92;25.98;;;22.40;37.50;;;;;;5039331;28;20477;-54
2023/04/02 13:12:02;;;;;;;30.95;26.25;;;22.40;37.50;;;;;;5041594;28;20033;-50
2023/04/02 13:14:29;;;;;;;29.20;25.60;;;22.40;37.50;;;;;;5045951;28;20028;-49
2023/04/02 13:16:55;;;;;;;29.60;26.02;;;22.40;37.50;;;;;;5046208;28;20322;-50
2023/04/02 13:19:30;;;;;;;29.38;26.05;;;22.40;37.40;;;;;;5048521;28;20393;-50
2023/04/02 13:21:59;;;;;;;28.52;25.40;;;22.40;37.40;;;;;;5034893;28;20368;-53
2023/04/02 13:24:27;;;;;;;30.30;26.23;;;22.40;37.40;;;;;;5039763;28;20045;-50
2023/04/02 13:26:59;;;;;;;29.85;25.75;;;22.40;37.30;;;;;;5034676;28;20021;-51